createdAt,value
2022-12-26T00:01:37.056Z,83.15
2022-12-26T00:04:03.904Z,82.90
2022-12-26T00:06:31.100Z,83.19
2022-12-26T00:08:58.237Z,82.59
2022-12-26T00:11:25.663Z,82.59
2022-12-26T00:13:56.279Z,82.63
2022-12-26T00:16:23.063Z,82.38
2022-12-26T00:18:50.161Z,82.72
2022-12-26T00:21:17.440Z,82.57
2022-12-26T00:23:44.229Z,82.40
2022-12-26T00:26:15.526Z,82.44
2022-12-26T00:28:42.383Z,84.33
2022-12-26T00:31:10.388Z,84.86
2022-12-26T00:33:37.745Z,85.57
2022-12-26T00:36:06.208Z,88.20
2022-12-26T00:38:33.699Z,87.47
2022-12-26T00:41:01.032Z,88.16
2022-12-26T00:43:27.690Z,87.44
2022-12-26T00:45:54.234Z,87.89
2022-12-26T00:48:20.862Z,88.33
2022-12-26T00:50:47.352Z,87.99
2022-12-26T00:53:13.918Z,87.64
2022-12-26T00:55:40.992Z,87.61
2022-12-26T00:58:07.644Z,88.48
2022-12-26T01:00:34.252Z,88.65
2022-12-26T01:03:01.017Z,87.31
2022-12-26T01:05:27.751Z,87.62
2022-12-26T01:08:22.878Z,87.53
2022-12-26T01:10:41.281Z,86.92
2022-12-26T01:13:08.105Z,88.73
2022-12-26T01:15:34.639Z,88.57
2022-12-26T01:18:01.515Z,89.06
2022-12-26T01:20:28.117Z,89.10
2022-12-26T01:22:55.128Z,89.98
2022-12-26T01:25:22.123Z,89.42
2022-12-26T01:27:48.616Z,88.91
2022-12-26T01:30:15.162Z,90.06
2022-12-26T01:32:41.688Z,88.86
2022-12-26T01:35:08.505Z,89.15
2022-12-26T01:37:34.995Z,90.07
2022-12-26T01:40:01.562Z,90.34
2022-12-26T01:42:35.816Z,90.82
2022-12-26T01:45:20.525Z,90.64
2022-12-26T01:47:49.685Z,90.44
2022-12-26T01:50:24.592Z,89.12
2022-12-26T01:52:51.367Z,89.34
2022-12-26T01:55:20.558Z,89.32
2022-12-26T01:57:54.567Z,89.64
2022-12-26T02:00:21.144Z,87.63
2022-12-26T02:03:06.413Z,88.94
2022-12-26T02:05:36.011Z,89.68
2022-12-26T02:08:08.371Z,90.36
2022-12-26T02:10:38.069Z,90.43
2022-12-26T02:13:05.031Z,90.88
2022-12-26T02:15:31.685Z,89.86
2022-12-26T02:17:58.336Z,89.12
2022-12-26T02:20:26.670Z,89.89
2022-12-26T02:23:11.831Z,88.13
2022-12-26T02:25:56.993Z,88.99
2022-12-26T02:28:32.451Z,88.25
2022-12-26T02:31:17.087Z,88.06
2022-12-26T02:33:57.185Z,88.11
2022-12-26T02:36:42.398Z,87.15
2022-12-26T02:39:43.253Z,87.81
2022-12-26T02:42:04.542Z,86.79
2022-12-26T02:44:59.119Z,86.72
2022-12-26T02:47:36.707Z,87.32
2022-12-26T02:50:33.900Z,86.39
2022-12-26T02:53:24.399Z,86.32
2022-12-26T02:56:11.713Z,85.66
2022-12-26T02:59:15.801Z,85.63
2022-12-26T03:02:04.409Z,84.65
2022-12-26T03:04:51.524Z,84.22
2022-12-26T03:07:43.935Z,85.00
2022-12-26T03:10:39.315Z,85.30
2022-12-26T03:13:12.405Z,85.14
2022-12-26T03:16:02.884Z,85.41
2022-12-26T03:18:59.411Z,86.33
2022-12-26T03:21:20.153Z,85.54
2022-12-26T03:23:47.633Z,85.07
2022-12-26T03:26:39.623Z,85.64
2022-12-26T03:29:30.095Z,86.04
2022-12-26T03:31:56.807Z,86.17
2022-12-26T03:34:23.374Z,86.28
2022-12-26T03:36:52.923Z,86.27
2022-12-26T03:39:46.406Z,86.23
2022-12-26T03:42:37.527Z,86.58
2022-12-26T03:45:32.875Z,86.20
2022-12-26T03:48:24.652Z,85.41
2022-12-26T03:51:13.993Z,85.81
2022-12-26T03:54:12.511Z,85.63
2022-12-26T03:57:00.218Z,85.75
2022-12-26T03:59:49.446Z,85.84
2022-12-26T04:02:35.462Z,86.15
2022-12-26T04:05:24.223Z,86.06
2022-12-26T04:08:18.292Z,85.52
2022-12-26T04:11:15.376Z,85.55
2022-12-26T04:14:03.742Z,86.04
2022-12-26T04:16:58.482Z,86.30
2022-12-26T04:19:28.131Z,86.11
2022-12-26T04:22:19.337Z,86.10
2022-12-26T04:25:11.746Z,86.58
2022-12-26T04:27:57.067Z,87.56
2022-12-26T04:30:42.678Z,86.01
2022-12-26T04:33:42.341Z,85.83
2022-12-26T04:36:46.772Z,85.17
2022-12-26T04:39:34.232Z,86.08
2022-12-26T04:42:19.630Z,85.93
2022-12-26T04:44:46.339Z,85.85
2022-12-26T04:47:13.669Z,85.16
2022-12-26T04:50:02.453Z,86.62
2022-12-26T04:52:47.837Z,85.82
2022-12-26T04:55:14.469Z,85.28
2022-12-26T04:57:40.955Z,85.34
2022-12-26T05:00:07.738Z,85.26
2022-12-26T05:02:57.767Z,86.21
2022-12-26T05:05:42.920Z,85.70
2022-12-26T05:08:41.339Z,84.98
2022-12-26T05:11:07.875Z,85.50
2022-12-26T05:13:34.451Z,84.61
2022-12-26T05:16:19.843Z,84.72
2022-12-26T05:19:05.158Z,84.93
2022-12-26T05:21:50.523Z,85.22
2022-12-26T05:24:35.873Z,84.38
2022-12-26T05:27:21.243Z,84.91
2022-12-26T05:29:47.936Z,84.72
2022-12-26T05:32:14.510Z,84.78
2022-12-26T05:34:41.097Z,85.25
2022-12-26T05:37:07.616Z,85.72
2022-12-26T05:39:34.179Z,85.52
2022-12-26T05:42:00.705Z,84.78
2022-12-26T05:44:27.222Z,85.35
2022-12-26T05:46:53.720Z,85.68
2022-12-26T05:49:20.356Z,85.95
2022-12-26T05:51:46.936Z,85.98
2022-12-26T05:54:13.550Z,85.63
2022-12-26T05:56:43.027Z,86.76
2022-12-26T05:59:14.020Z,84.99
2022-12-26T06:01:40.711Z,85.86
2022-12-26T06:04:07.304Z,86.28
2022-12-26T06:06:33.841Z,86.19
2022-12-26T06:09:00.455Z,85.19
2022-12-26T06:11:27.128Z,87.04
2022-12-26T06:13:54.092Z,86.18
2022-12-26T06:16:20.825Z,85.45
2022-12-26T06:18:48.278Z,86.69
2022-12-26T06:21:16.270Z,87.99
2022-12-26T06:23:43.179Z,86.66
2022-12-26T06:26:10.430Z,86.79
2022-12-26T06:28:37.324Z,85.91
2022-12-26T06:31:04.961Z,87.37
2022-12-26T06:33:31.550Z,85.86
2022-12-26T06:36:05.265Z,85.97
2022-12-26T06:38:31.800Z,85.63
2022-12-26T06:40:58.348Z,86.30
2022-12-26T06:43:24.975Z,86.35
2022-12-26T06:45:58.511Z,86.69
2022-12-26T06:48:25.649Z,86.21
2022-12-26T06:50:54.185Z,86.03
2022-12-26T06:53:21.738Z,86.14
2022-12-26T06:55:48.486Z,85.97
2022-12-26T06:58:15.199Z,85.37
2022-12-26T07:00:41.722Z,85.49
2022-12-26T07:03:08.359Z,86.07
2022-12-26T07:05:37.943Z,86.46
2022-12-26T07:08:04.640Z,85.72
2022-12-26T07:10:34.940Z,85.50
2022-12-26T07:13:01.478Z,84.95
2022-12-26T07:15:27.979Z,84.61
2022-12-26T07:17:54.556Z,83.23
2022-12-26T07:20:21.040Z,83.38
2022-12-26T07:22:47.604Z,83.02
2022-12-26T07:25:14.144Z,81.55
2022-12-26T07:27:40.691Z,81.50
2022-12-26T07:30:07.571Z,80.37
2022-12-26T07:32:34.123Z,80.77
2022-12-26T07:35:00.620Z,80.08
2022-12-26T07:37:27.233Z,80.32
2022-12-26T07:39:58.846Z,80.93
2022-12-26T07:42:26.043Z,79.48
2022-12-26T07:44:52.545Z,80.46
2022-12-26T07:47:19.163Z,79.81
2022-12-26T07:49:45.670Z,79.25
2022-12-26T07:52:12.232Z,79.66
2022-12-26T07:54:38.815Z,79.34
2022-12-26T07:57:38.060Z,79.49
2022-12-26T07:59:53.656Z,80.19
2022-12-26T08:02:22.359Z,80.43
2022-12-26T08:04:49.060Z,81.03
2022-12-26T08:07:15.613Z,81.50
2022-12-26T08:09:44.758Z,80.11
2022-12-26T08:12:11.343Z,80.14
2022-12-26T08:14:38.071Z,80.41
2022-12-26T08:17:04.663Z,80.04
2022-12-26T08:19:31.294Z,78.94
2022-12-26T08:21:57.888Z,79.67
2022-12-26T08:24:24.519Z,79.19
2022-12-26T08:26:51.018Z,78.66
2022-12-26T08:29:17.587Z,80.38
2022-12-26T08:31:44.102Z,78.90
2022-12-26T08:34:10.736Z,78.40
2022-12-26T08:36:38.365Z,77.85
2022-12-26T08:39:05.301Z,77.50
2022-12-26T08:41:31.838Z,78.08
2022-12-26T08:46:45.964Z,77.96
2022-12-26T08:49:12.969Z,78.71
2022-12-26T08:51:39.792Z,80.00
2022-12-26T08:54:06.633Z,79.56
2022-12-26T08:56:33.267Z,79.15
2022-12-26T08:58:59.752Z,79.26
2022-12-26T09:01:28.925Z,79.99
2022-12-26T09:04:00.449Z,79.51
2022-12-26T09:06:28.311Z,82.02
2022-12-26T09:08:54.812Z,80.83
2022-12-26T09:11:23.497Z,80.29
2022-12-26T09:13:50.244Z,79.88
2022-12-26T09:16:19.112Z,79.95
2022-12-26T09:18:46.142Z,79.61
2022-12-26T09:21:14.774Z,78.73
2022-12-26T09:23:41.854Z,79.70
2022-12-26T09:26:16.755Z,79.62
2022-12-26T09:28:43.540Z,79.10
2022-12-26T09:31:11.980Z,78.98
2022-12-26T09:33:38.657Z,78.56
2022-12-26T09:36:12.500Z,77.98
2022-12-26T09:38:41.401Z,78.09
2022-12-26T09:41:12.023Z,77.87
2022-12-26T09:44:00.733Z,78.57
2022-12-26T09:46:39.758Z,77.26
2022-12-26T09:49:14.172Z,77.69
2022-12-26T09:51:43.184Z,78.34
2022-12-26T09:54:15.144Z,77.00
2022-12-26T09:59:30.828Z,77.30
2022-12-26T10:01:57.480Z,76.65
2022-12-26T10:04:29.691Z,76.67
2022-12-26T10:07:15.394Z,76.04
2022-12-26T10:09:55.265Z,76.22
2022-12-26T10:12:34.943Z,75.15
2022-12-26T10:15:13.868Z,74.77
2022-12-26T10:17:40.393Z,75.35
2022-12-26T10:20:08.002Z,75.32
2022-12-26T10:22:54.530Z,75.65
2022-12-26T10:25:23.297Z,74.79
2022-12-26T10:27:51.687Z,74.40
2022-12-26T10:30:21.622Z,75.13
2022-12-26T10:32:51.772Z,74.17
2022-12-26T10:35:37.460Z,73.25
2022-12-26T10:38:36.447Z,74.15
2022-12-26T10:41:23.286Z,74.46
2022-12-26T10:43:49.877Z,73.50
2022-12-26T10:46:25.499Z,73.29
2022-12-26T10:48:52.047Z,72.82
2022-12-26T10:51:19.862Z,73.32
2022-12-26T10:53:50.946Z,72.47
2022-12-26T10:56:18.459Z,73.70
2022-12-26T10:58:45.773Z,73.59
2022-12-26T11:01:31.467Z,73.92
2022-12-26T11:03:59.217Z,73.25
2022-12-26T11:06:27.697Z,73.33
2022-12-26T11:08:54.597Z,75.02
2022-12-26T11:11:23.762Z,74.56
2022-12-26T11:13:57.698Z,74.54
2022-12-26T11:16:35.518Z,74.50
2022-12-26T11:19:02.528Z,74.31
2022-12-26T11:21:29.826Z,73.89
2022-12-26T11:24:08.327Z,74.44
2022-12-26T11:26:35.373Z,73.87
2022-12-26T11:29:11.574Z,73.70
2022-12-26T11:31:39.191Z,73.19
2022-12-26T11:34:09.962Z,71.67
2022-12-26T11:36:40.447Z,71.87
2022-12-26T11:39:19.673Z,70.83
2022-12-26T11:41:49.141Z,71.85
2022-12-26T11:44:18.774Z,68.19
2022-12-26T11:46:51.192Z,60.76
2022-12-26T11:49:22.403Z,57.42
2022-12-26T11:51:55.495Z,57.00
2022-12-26T11:54:28.996Z,55.71
2022-12-26T11:57:03.155Z,55.63
2022-12-26T11:59:29.772Z,55.22
2022-12-26T12:02:25.771Z,54.05
2022-12-26T12:04:54.857Z,57.12
2022-12-26T12:07:41.667Z,56.04
2022-12-26T12:10:11.323Z,56.71
2022-12-26T12:12:43.184Z,57.56
2022-12-26T12:15:15.596Z,61.84
2022-12-26T12:17:48.144Z,60.70
2022-12-26T12:20:51.816Z,61.86
2022-12-26T12:23:30.548Z,64.56
2022-12-26T12:25:59.859Z,66.50
2022-12-26T12:28:26.321Z,67.38
2022-12-26T12:31:01.994Z,68.37
2022-12-26T12:33:46.994Z,68.41
2022-12-26T12:36:18.830Z,69.95
2022-12-26T12:38:56.701Z,69.16
2022-12-26T12:41:42.086Z,69.34
2022-12-26T12:44:20.239Z,69.46
2022-12-26T12:46:56.003Z,69.20
2022-12-26T12:49:43.381Z,69.14
2022-12-26T12:52:19.181Z,68.60
2022-12-26T12:54:57.604Z,69.08
2022-12-26T12:57:42.779Z,67.82
2022-12-26T13:00:23.655Z,68.12
2022-12-26T13:02:57.450Z,67.19
2022-12-26T13:05:24.099Z,67.47
2022-12-26T13:07:58.815Z,68.07
2022-12-26T13:10:29.063Z,67.42
2022-12-26T13:12:57.228Z,66.72
2022-12-26T13:18:15.488Z,66.75
2022-12-26T13:20:42.015Z,65.81
2022-12-26T13:23:35.251Z,65.12
2022-12-26T13:26:21.684Z,65.22
2022-12-26T13:28:58.781Z,64.70
2022-12-26T13:31:25.492Z,65.42
2022-12-26T13:33:52.061Z,65.57
2022-12-26T13:36:38.695Z,65.85
2022-12-26T13:39:08.297Z,66.17
2022-12-26T13:41:54.350Z,64.82
2022-12-26T13:44:20.886Z,64.61
2022-12-26T13:46:47.345Z,63.54
2022-12-26T13:49:29.240Z,61.44
2022-12-26T13:51:59.840Z,60.02
2022-12-26T13:54:27.911Z,59.43
2022-12-26T13:57:00.915Z,59.84
2022-12-26T13:59:38.695Z,61.83
2022-12-26T14:03:07.727Z,61.64
2022-12-26T14:05:36.670Z,61.15
2022-12-26T14:08:05.951Z,61.62
2022-12-26T14:10:38.339Z,62.45
2022-12-26T14:13:23.511Z,62.67
2022-12-26T14:16:00.750Z,62.90
2022-12-26T14:18:34.898Z,63.07
2022-12-26T14:21:01.457Z,63.64
2022-12-26T14:23:27.921Z,63.74
2022-12-26T14:25:54.493Z,63.22
2022-12-26T14:28:46.460Z,63.41
2022-12-26T14:31:19.022Z,63.28
2022-12-26T14:34:04.231Z,62.89
2022-12-26T14:36:45.769Z,63.60
2022-12-26T14:39:31.118Z,64.56
2022-12-26T14:42:25.501Z,65.81
2022-12-26T14:44:59.251Z,67.55
2022-12-26T14:47:44.515Z,70.46
2022-12-26T14:50:29.574Z,70.40
2022-12-26T14:53:16.121Z,73.83
2022-12-26T14:56:01.489Z,77.85
2022-12-26T14:58:31.151Z,81.43
2022-12-26T15:01:20.832Z,83.54
2022-12-26T15:03:59.743Z,86.74
2022-12-26T15:06:44.959Z,86.56
2022-12-26T15:09:34.470Z,86.05
2022-12-26T15:12:19.572Z,86.15
2022-12-26T15:14:49.188Z,85.58
2022-12-26T15:17:24.553Z,85.45
2022-12-26T15:20:03.133Z,85.31
2022-12-26T15:22:29.734Z,85.29
2022-12-26T15:27:58.138Z,85.56
2022-12-26T15:30:27.516Z,84.73
2022-12-26T15:33:01.821Z,84.87
2022-12-26T15:35:33.713Z,85.08
2022-12-26T15:38:17.515Z,84.78
2022-12-26T15:40:45.851Z,83.94
2022-12-26T15:43:28.283Z,84.08
2022-12-26T15:45:57.858Z,82.27
2022-12-26T15:48:56.577Z,81.01
2022-12-26T15:51:41.627Z,79.90
2022-12-26T15:54:08.153Z,78.90
2022-12-26T15:56:44.592Z,77.16
2022-12-26T15:59:29.996Z,76.45
2022-12-26T16:01:58.357Z,77.12
2022-12-26T16:04:27.198Z,77.35
2022-12-26T16:06:56.821Z,76.07
2022-12-26T16:09:39.641Z,76.67
2022-12-26T16:12:18.435Z,77.20
2022-12-26T16:14:45.075Z,76.25
2022-12-26T16:17:14.561Z,76.37
2022-12-26T16:19:42.138Z,75.96
2022-12-26T16:22:31.493Z,74.81
2022-12-26T16:24:58.097Z,74.67
2022-12-26T16:27:25.665Z,74.15
2022-12-26T16:29:54.992Z,73.68
2022-12-26T16:32:26.151Z,74.55
2022-12-26T16:34:52.959Z,72.67
2022-12-26T16:37:21.664Z,73.33
2022-12-26T16:40:07.136Z,73.19
2022-12-26T16:42:34.207Z,72.89
2022-12-26T16:45:00.858Z,72.62
2022-12-26T16:47:28.914Z,72.66
2022-12-26T16:49:56.511Z,72.94
2022-12-26T16:52:42.111Z,73.44
2022-12-26T16:55:30.933Z,73.76
2022-12-26T16:57:58.747Z,73.89
2022-12-26T17:00:26.608Z,73.82
2022-12-26T17:02:56.187Z,74.56
2022-12-26T17:05:22.833Z,74.67
2022-12-26T17:07:50.532Z,75.41
2022-12-26T17:10:24.825Z,74.10
2022-12-26T17:12:52.332Z,74.88
2022-12-26T17:15:25.184Z,74.56
2022-12-26T17:17:51.865Z,75.11
2022-12-26T17:20:29.436Z,75.50
2022-12-26T17:22:56.472Z,75.34
2022-12-26T17:25:24.573Z,75.16
2022-12-26T17:28:06.147Z,74.98
2022-12-26T17:30:33.248Z,74.62
2022-12-26T17:33:04.452Z,74.71
2022-12-26T17:35:46.968Z,73.78
2022-12-26T17:38:17.536Z,73.38
2022-12-26T17:40:45.462Z,73.02
2022-12-26T17:43:11.918Z,72.18
2022-12-26T17:45:44.648Z,72.76
2022-12-26T17:48:13.055Z,72.85
2022-12-26T17:50:40.595Z,72.19
2022-12-26T17:53:16.110Z,72.51
2022-12-26T17:55:42.650Z,71.87
2022-12-26T17:58:12.955Z,72.27
2022-12-26T18:00:40.503Z,72.76
2022-12-26T18:03:07.371Z,72.00
2022-12-26T18:05:34.578Z,72.34
2022-12-26T18:08:01.377Z,71.71
2022-12-26T18:10:30.557Z,71.59
2022-12-26T18:12:57.865Z,71.71
2022-12-26T18:15:28.502Z,71.63
2022-12-26T18:17:55.228Z,72.07
2022-12-26T18:20:23.251Z,72.76
2022-12-26T18:22:50.031Z,72.39
2022-12-26T18:25:17.298Z,71.79
2022-12-26T18:27:44.449Z,71.61
2022-12-26T18:30:18.552Z,70.87
2022-12-26T18:32:45.739Z,71.23
2022-12-26T18:35:12.602Z,71.15
2022-12-26T18:37:40.755Z,71.48
2022-12-26T18:40:14.690Z,71.50
2022-12-26T18:42:41.274Z,72.08
2022-12-26T18:45:07.916Z,71.64
2022-12-26T18:47:34.482Z,72.04
2022-12-26T18:50:01.041Z,72.34
2022-12-26T18:52:27.558Z,71.98
2022-12-26T18:54:54.045Z,71.40
2022-12-26T18:57:20.656Z,71.63
2022-12-26T18:59:48.303Z,71.90
2022-12-26T19:02:16.304Z,71.29
2022-12-26T19:04:42.921Z,70.85
2022-12-26T19:07:11.065Z,71.41
2022-12-26T19:09:37.626Z,71.27
2022-12-26T19:12:04.327Z,71.42
2022-12-26T19:14:30.826Z,71.64
2022-12-26T19:16:57.391Z,71.63
2022-12-26T19:19:26.652Z,71.26
2022-12-26T19:21:53.180Z,72.13
2022-12-26T19:24:19.720Z,70.98
2022-12-26T19:26:46.342Z,70.79
2022-12-26T19:29:12.959Z,70.69
2022-12-26T19:31:39.524Z,70.53
2022-12-26T19:34:06.057Z,69.74
2022-12-26T19:36:32.612Z,69.00
2022-12-26T19:38:59.719Z,68.95
2022-12-26T19:41:26.306Z,69.04
2022-12-26T19:43:56.729Z,68.06
2022-12-26T19:46:23.812Z,67.27
2022-12-26T19:48:50.815Z,67.40
2022-12-26T19:51:17.821Z,67.80
2022-12-26T19:53:45.007Z,66.81
2022-12-26T19:56:16.169Z,67.95
2022-12-26T19:58:43.056Z,67.35
2022-12-26T20:01:10.890Z,67.77
2022-12-26T20:03:37.590Z,66.65
2022-12-26T20:06:14.732Z,66.81
2022-12-26T20:08:42.190Z,67.25
2022-12-26T20:11:15.265Z,67.15
2022-12-26T20:13:43.086Z,67.29
2022-12-26T20:16:37.420Z,67.85
2022-12-26T20:18:58.502Z,68.68
2022-12-26T20:21:25.025Z,67.19
2022-12-26T20:23:51.567Z,68.77
2022-12-26T20:26:19.489Z,67.83
2022-12-26T20:28:46.200Z,68.76
2022-12-26T20:31:14.117Z,68.21
2022-12-26T20:33:42.045Z,70.03
2022-12-26T20:36:13.405Z,69.65
2022-12-26T20:38:40.534Z,69.09
2022-12-26T20:41:07.519Z,69.06
2022-12-26T20:43:34.177Z,69.17
2022-12-26T20:46:07.741Z,70.07
2022-12-26T20:48:34.619Z,69.48
2022-12-26T20:51:02.354Z,70.08
2022-12-26T20:53:28.960Z,69.55
2022-12-26T20:55:57.616Z,69.73
2022-12-26T20:58:25.577Z,70.00
2022-12-26T21:00:56.704Z,69.89
2022-12-26T21:03:23.511Z,70.64
2022-12-26T21:05:50.103Z,70.26
2022-12-26T21:08:16.669Z,69.65
2022-12-26T21:10:43.225Z,69.72
2022-12-26T21:13:09.938Z,69.65
2022-12-26T21:15:36.932Z,69.82
2022-12-26T21:18:03.999Z,70.08
2022-12-26T21:20:30.957Z,70.41
2022-12-26T21:22:57.846Z,70.25
2022-12-26T21:25:24.352Z,70.96
2022-12-26T21:27:53.865Z,70.81
2022-12-26T21:30:22.751Z,70.70
2022-12-26T21:32:49.311Z,71.34
2022-12-26T21:35:15.865Z,71.13
2022-12-26T21:37:54.304Z,72.32
2022-12-26T21:40:22.981Z,71.64
2022-12-26T21:42:49.503Z,71.90
2022-12-26T21:45:16.130Z,72.81
2022-12-26T21:47:42.631Z,72.96
2022-12-26T21:50:09.364Z,73.55
2022-12-26T21:52:35.894Z,73.64
2022-12-26T21:55:20.945Z,73.30
2022-12-26T21:57:47.839Z,73.26
2022-12-26T22:00:14.615Z,73.62
2022-12-26T22:03:00.112Z,73.99
2022-12-26T22:05:27.946Z,74.02
2022-12-26T22:07:55.598Z,73.69
2022-12-26T22:10:41.976Z,73.76
2022-12-26T22:13:08.644Z,74.42
2022-12-26T22:15:54.035Z,74.27
2022-12-26T22:18:20.569Z,74.39
2022-12-26T22:20:47.115Z,73.97
2022-12-26T22:23:13.803Z,75.09
2022-12-26T22:25:40.288Z,75.13
2022-12-26T22:28:06.895Z,74.28
2022-12-26T22:30:33.425Z,75.46
2022-12-26T22:33:00.099Z,75.22
2022-12-26T22:35:27.850Z,75.16
2022-12-26T22:37:54.463Z,75.33
2022-12-26T22:40:20.970Z,75.29
2022-12-26T22:42:47.491Z,75.49
2022-12-26T22:45:14.041Z,75.59
2022-12-26T22:47:40.576Z,75.10
2022-12-26T22:50:07.336Z,75.70
2022-12-26T22:52:33.899Z,74.91
2022-12-26T22:55:00.384Z,75.46
2022-12-26T22:57:26.915Z,75.48
2022-12-26T23:00:10.805Z,75.14
2022-12-26T23:02:37.783Z,74.65
2022-12-26T23:05:05.030Z,74.95
2022-12-26T23:07:32.070Z,75.39
2022-12-26T23:09:58.917Z,75.46
2022-12-26T23:12:44.110Z,74.40
2022-12-26T23:15:12.043Z,74.76
2022-12-26T23:17:58.055Z,74.90
2022-12-26T23:20:44.988Z,74.12
2022-12-26T23:23:11.776Z,74.79
2022-12-26T23:25:39.086Z,74.71
2022-12-26T23:28:24.097Z,74.73
2022-12-26T23:30:50.650Z,74.62
2022-12-26T23:33:17.130Z,74.80
2022-12-26T23:35:44.069Z,75.23
2022-12-26T23:38:10.562Z,75.10
2022-12-26T23:40:37.143Z,75.21
2022-12-26T23:43:03.656Z,74.53
2022-12-26T23:45:30.192Z,74.89
2022-12-26T23:47:56.668Z,74.72
2022-12-26T23:50:23.310Z,74.89
2022-12-26T23:52:49.809Z,74.68
2022-12-26T23:55:16.457Z,74.34
2022-12-26T23:57:43.081Z,74.10
